sensor_id;sensor_type;location;lat;lon;timestamp;P1;durP1;ratioP1;P2;durP2;ratioP2
13799;SDS011;6971;50.028;9.258;2023-04-25T00:03:03;15.23;;;11.17;;
13799;SDS011;6971;50.028;9.258;2023-04-25T00:08:05;13.07;;;11.67;;
13799;SDS011;6971;50.028;9.258;2023-04-25T00:13:06;13.73;;;11.43;;
13799;SDS011;6971;50.028;9.258;2023-04-25T00:18:08;12.50;;;10.50;;
13799;SDS011;6971;50.028;9.258;2023-04-25T00:23:08;13.30;;;9.93;;
13799;SDS011;6971;50.028;9.258;2023-04-25T00:28:10;12.53;;;10.53;;
13799;SDS011;6971;50.028;9.258;2023-04-25T00:33:11;10.93;;;9.20;;
13799;SDS011;6971;50.028;9.258;2023-04-25T00:38:12;11.40;;;8.87;;
13799;SDS011;6971;50.028;9.258;2023-04-25T00:43:12;11.70;;;8.87;;
13799;SDS011;6971;50.028;9.258;2023-04-25T00:48:16;10.67;;;9.10;;
13799;SDS011;6971;50.028;9.258;2023-04-25T00:53:17;12.20;;;10.37;;
13799;SDS011;6971;50.028;9.258;2023-04-25T00:58:18;12.43;;;9.30;;
13799;SDS011;6971;50.028;9.258;2023-04-25T01:03:20;11.03;;;8.77;;
13799;SDS011;6971;50.028;9.258;2023-04-25T01:08:21;10.23;;;9.20;;
13799;SDS011;6971;50.028;9.258;2023-04-25T01:13:24;10.73;;;9.17;;
13799;SDS011;6971;50.028;9.258;2023-04-25T01:18:25;11.73;;;9.63;;
13799;SDS011;6971;50.028;9.258;2023-04-25T01:23:25;11.07;;;9.57;;
13799;SDS011;6971;50.028;9.258;2023-04-25T01:28:26;11.90;;;9.60;;
13799;SDS011;6971;50.028;9.258;2023-04-25T01:33:27;12.90;;;10.10;;
13799;SDS011;6971;50.028;9.258;2023-04-25T01:38:30;11.67;;;9.50;;
13799;SDS011;6971;50.028;9.258;2023-04-25T01:43:31;12.20;;;9.87;;
13799;SDS011;6971;50.028;9.258;2023-04-25T01:48:32;11.03;;;9.70;;
13799;SDS011;6971;50.028;9.258;2023-04-25T01:53:32;12.73;;;9.27;;
13799;SDS011;6971;50.028;9.258;2023-04-25T01:58:33;10.67;;;9.03;;
13799;SDS011;6971;50.028;9.258;2023-04-25T02:03:37;11.10;;;8.93;;
13799;SDS011;6971;50.028;9.258;2023-04-25T02:08:37;11.37;;;9.67;;
13799;SDS011;6971;50.028;9.258;2023-04-25T02:13:38;12.23;;;10.03;;
13799;SDS011;6971;50.028;9.258;2023-04-25T02:18:38;10.70;;;9.57;;
13799;SDS011;6971;50.028;9.258;2023-04-25T02:23:39;10.03;;;8.97;;
13799;SDS011;6971;50.028;9.258;2023-04-25T02:28:39;12.37;;;9.97;;
13799;SDS011;6971;50.028;9.258;2023-04-25T02:33:40;12.87;;;10.17;;
13799;SDS011;6971;50.028;9.258;2023-04-25T02:38:40;14.83;;;10.97;;
13799;SDS011;6971;50.028;9.258;2023-04-25T02:43:40;14.30;;;11.17;;
13799;SDS011;6971;50.028;9.258;2023-04-25T02:48:41;13.97;;;11.07;;
13799;SDS011;6971;50.028;9.258;2023-04-25T02:53:41;15.87;;;12.03;;
13799;SDS011;6971;50.028;9.258;2023-04-25T02:58:42;15.47;;;11.37;;
13799;SDS011;6971;50.028;9.258;2023-04-25T03:03:42;16.40;;;12.93;;
13799;SDS011;6971;50.028;9.258;2023-04-25T03:08:42;14.27;;;10.83;;
13799;SDS011;6971;50.028;9.258;2023-04-25T03:13:43;17.87;;;13.03;;
13799;SDS011;6971;50.028;9.258;2023-04-25T03:18:43;18.00;;;14.07;;
13799;SDS011;6971;50.028;9.258;2023-04-25T03:23:44;15.50;;;12.93;;
13799;SDS011;6971;50.028;9.258;2023-04-25T03:28:44;17.50;;;13.67;;
13799;SDS011;6971;50.028;9.258;2023-04-25T03:33:44;20.70;;;15.10;;
13799;SDS011;6971;50.028;9.258;2023-04-25T03:38:45;17.53;;;15.00;;
13799;SDS011;6971;50.028;9.258;2023-04-25T03:43:45;19.40;;;15.07;;
13799;SDS011;6971;50.028;9.258;2023-04-25T03:48:45;19.00;;;15.47;;
13799;SDS011;6971;50.028;9.258;2023-04-25T03:53:46;19.90;;;15.00;;
13799;SDS011;6971;50.028;9.258;2023-04-25T03:58:46;18.90;;;15.23;;
13799;SDS011;6971;50.028;9.258;2023-04-25T04:03:46;21.80;;;16.80;;
13799;SDS011;6971;50.028;9.258;2023-04-25T04:08:47;25.67;;;17.50;;
13799;SDS011;6971;50.028;9.258;2023-04-25T04:13:48;24.43;;;17.63;;
13799;SDS011;6971;50.028;9.258;2023-04-25T04:18:48;21.57;;;16.53;;
13799;SDS011;6971;50.028;9.258;2023-04-25T04:23:49;22.60;;;17.07;;
13799;SDS011;6971;50.028;9.258;2023-04-25T04:28:49;23.87;;;17.50;;
13799;SDS011;6971;50.028;9.258;2023-04-25T04:33:54;25.37;;;17.37;;
13799;SDS011;6971;50.028;9.258;2023-04-25T04:38:54;22.80;;;17.77;;
13799;SDS011;6971;50.028;9.258;2023-04-25T04:43:56;22.83;;;17.13;;
13799;SDS011;6971;50.028;9.258;2023-04-25T04:48:56;26.13;;;17.90;;
13799;SDS011;6971;50.028;9.258;2023-04-25T04:53:58;25.27;;;16.80;;
13799;SDS011;6971;50.028;9.258;2023-04-25T04:59:02;21.90;;;16.27;;
13799;SDS011;6971;50.028;9.258;2023-04-25T05:04:02;22.33;;;16.87;;
13799;SDS011;6971;50.028;9.258;2023-04-25T05:09:04;25.63;;;17.73;;
13799;SDS011;6971;50.028;9.258;2023-04-25T05:14:05;18.47;;;14.77;;
13799;SDS011;6971;50.028;9.258;2023-04-25T05:19:05;26.33;;;16.13;;
13799;SDS011;6971;50.028;9.258;2023-04-25T05:24:05;23.33;;;17.87;;
13799;SDS011;6971;50.028;9.258;2023-04-25T05:29:06;24.93;;;17.70;;
13799;SDS011;6971;50.028;9.258;2023-04-25T05:34:06;23.37;;;14.40;;
13799;SDS011;6971;50.028;9.258;2023-04-25T05:39:07;23.70;;;12.83;;
13799;SDS011;6971;50.028;9.258;2023-04-25T05:44:08;20.53;;;13.27;;
13799;SDS011;6971;50.028;9.258;2023-04-25T05:49:09;20.93;;;12.07;;
13799;SDS011;6971;50.028;9.258;2023-04-25T05:54:10;17.73;;;11.10;;
13799;SDS011;6971;50.028;9.258;2023-04-25T05:59:10;20.73;;;9.60;;
13799;SDS011;6971;50.028;9.258;2023-04-25T06:04:11;12.33;;;8.50;;
13799;SDS011;6971;50.028;9.258;2023-04-25T06:09:11;17.20;;;8.27;;
13799;SDS011;6971;50.028;9.258;2023-04-25T06:14:12;10.33;;;7.50;;
13799;SDS011;6971;50.028;9.258;2023-04-25T06:19:12;15.17;;;8.43;;
13799;SDS011;6971;50.028;9.258;2023-04-25T06:24:12;16.60;;;8.17;;
13799;SDS011;6971;50.028;9.258;2023-04-25T06:29:13;15.77;;;8.37;;
13799;SDS011;6971;50.028;9.258;2023-04-25T06:34:13;13.23;;;7.40;;
13799;SDS011;6971;50.028;9.258;2023-04-25T06:39:14;15.87;;;8.57;;
13799;SDS011;6971;50.028;9.258;2023-04-25T06:44:14;11.63;;;8.93;;
13799;SDS011;6971;50.028;9.258;2023-04-25T06:49:15;12.87;;;9.30;;
13799;SDS011;6971;50.028;9.258;2023-04-25T06:54:15;8.90;;;4.93;;
13799;SDS011;6971;50.028;9.258;2023-04-25T06:59:16;6.50;;;4.70;;
13799;SDS011;6971;50.028;9.258;2023-04-25T07:04:16;5.17;;;4.20;;
13799;SDS011;6971;50.028;9.258;2023-04-25T07:09:16;6.20;;;4.67;;
13799;SDS011;6971;50.028;9.258;2023-04-25T07:14:17;11.53;;;5.83;;
13799;SDS011;6971;50.028;9.258;2023-04-25T07:19:17;10.85;;;5.28;;
13799;SDS011;6971;50.028;9.258;2023-04-25T07:24:17;7.07;;;4.87;;
13799;SDS011;6971;50.028;9.258;2023-04-25T07:29:18;6.00;;;4.80;;
13799;SDS011;6971;50.028;9.258;2023-04-25T07:34:18;8.70;;;5.10;;
13799;SDS011;6971;50.028;9.258;2023-04-25T07:39:18;8.73;;;5.20;;
13799;SDS011;6971;50.028;9.258;2023-04-25T07:44:19;9.23;;;5.37;;
13799;SDS011;6971;50.028;9.258;2023-04-25T07:49:19;8.10;;;5.10;;
13799;SDS011;6971;50.028;9.258;2023-04-25T07:54:20;7.00;;;4.53;;
13799;SDS011;6971;50.028;9.258;2023-04-25T07:59:22;9.87;;;7.93;;
13799;SDS011;6971;50.028;9.258;2023-04-25T08:04:23;7.23;;;5.17;;
13799;SDS011;6971;50.028;9.258;2023-04-25T08:09:25;7.33;;;4.77;;
13799;SDS011;6971;50.028;9.258;2023-04-25T08:14:25;10.03;;;5.63;;
13799;SDS011;6971;50.028;9.258;2023-04-25T08:19:26;7.87;;;4.70;;
13799;SDS011;6971;50.028;9.258;2023-04-25T08:24:26;12.47;;;5.40;;
13799;SDS011;6971;50.028;9.258;2023-04-25T08:29:26;9.00;;;5.00;;
13799;SDS011;6971;50.028;9.258;2023-04-25T08:34:28;8.27;;;5.50;;
13799;SDS011;6971;50.028;9.258;2023-04-25T08:39:28;8.77;;;5.43;;
13799;SDS011;6971;50.028;9.258;2023-04-25T08:44:29;9.57;;;5.47;;
13799;SDS011;6971;50.028;9.258;2023-04-25T08:49:31;7.67;;;4.70;;
13799;SDS011;6971;50.028;9.258;2023-04-25T08:54:32;6.90;;;5.20;;
13799;SDS011;6971;50.028;9.258;2023-04-25T08:59:33;8.10;;;4.67;;
13799;SDS011;6971;50.028;9.258;2023-04-25T09:04:33;8.80;;;4.80;;
13799;SDS011;6971;50.028;9.258;2023-04-25T09:09:33;7.37;;;3.97;;
13799;SDS011;6971;50.028;9.258;2023-04-25T09:14:34;5.47;;;3.90;;
13799;SDS011;6971;50.028;9.258;2023-04-25T09:19:35;3.80;;;3.40;;
13799;SDS011;6971;50.028;9.258;2023-04-25T09:24:41;6.07;;;3.57;;
13799;SDS011;6971;50.028;9.258;2023-04-25T09:29:46;4.67;;;3.90;;
13799;SDS011;6971;50.028;9.258;2023-04-25T09:34:47;7.97;;;3.73;;
13799;SDS011;6971;50.028;9.258;2023-04-25T09:39:50;6.27;;;3.80;;
13799;SDS011;6971;50.028;9.258;2023-04-25T09:44:54;6.13;;;3.93;;
13799;SDS011;6971;50.028;9.258;2023-04-25T09:49:56;6.90;;;3.47;;
13799;SDS011;6971;50.028;9.258;2023-04-25T09:54:56;5.43;;;3.40;;
13799;SDS011;6971;50.028;9.258;2023-04-25T09:59:57;5.70;;;5.10;;
13799;SDS011;6971;50.028;9.258;2023-04-25T10:05:00;5.13;;;4.10;;
13799;SDS011;6971;50.028;9.258;2023-04-25T10:10:03;6.33;;;4.63;;
13799;SDS011;6971;50.028;9.258;2023-04-25T10:15:05;5.07;;;4.10;;
13799;SDS011;6971;50.028;9.258;2023-04-25T10:20:08;6.73;;;3.93;;
13799;SDS011;6971;50.028;9.258;2023-04-25T10:25:10;7.27;;;4.43;;
13799;SDS011;6971;50.028;9.258;2023-04-25T10:30:14;6.63;;;4.43;;
13799;SDS011;6971;50.028;9.258;2023-04-25T10:35:16;4.27;;;3.63;;
13799;SDS011;6971;50.028;9.258;2023-04-25T10:40:18;8.73;;;4.83;;
13799;SDS011;6971;50.028;9.258;2023-04-25T10:45:22;7.70;;;4.40;;
13799;SDS011;6971;50.028;9.258;2023-04-25T10:50:23;7.33;;;4.90;;
13799;SDS011;6971;50.028;9.258;2023-04-25T10:55:51;8.03;;;5.30;;
13799;SDS011;6971;50.028;9.258;2023-04-25T11:00:51;7.83;;;5.70;;
13799;SDS011;6971;50.028;9.258;2023-04-25T11:05:52;8.03;;;5.13;;
13799;SDS011;6971;50.028;9.258;2023-04-25T11:10:53;6.63;;;5.30;;
13799;SDS011;6971;50.028;9.258;2023-04-25T11:15:54;5.73;;;5.07;;
13799;SDS011;6971;50.028;9.258;2023-04-25T11:20:55;6.07;;;5.47;;
13799;SDS011;6971;50.028;9.258;2023-04-25T11:25:55;8.10;;;5.80;;
13799;SDS011;6971;50.028;9.258;2023-04-25T11:30:56;9.10;;;6.00;;
13799;SDS011;6971;50.028;9.258;2023-04-25T11:35:57;8.40;;;6.03;;
13799;SDS011;6971;50.028;9.258;2023-04-25T11:40:58;8.87;;;5.60;;
13799;SDS011;6971;50.028;9.258;2023-04-25T11:45:58;5.50;;;5.00;;
13799;SDS011;6971;50.028;9.258;2023-04-25T11:50:59;7.27;;;4.70;;
13799;SDS011;6971;50.028;9.258;2023-04-25T11:56:00;6.33;;;4.00;;
13799;SDS011;6971;50.028;9.258;2023-04-25T12:01:00;6.93;;;3.90;;
13799;SDS011;6971;50.028;9.258;2023-04-25T12:06:03;7.77;;;4.00;;
13799;SDS011;6971;50.028;9.258;2023-04-25T12:11:04;7.13;;;3.83;;
13799;SDS011;6971;50.028;9.258;2023-04-25T12:16:04;7.40;;;5.20;;
13799;SDS011;6971;50.028;9.258;2023-04-25T12:21:05;7.00;;;3.67;;
13799;SDS011;6971;50.028;9.258;2023-04-25T12:26:05;5.03;;;3.67;;
13799;SDS011;6971;50.028;9.258;2023-04-25T12:31:07;3.60;;;3.03;;
13799;SDS011;6971;50.028;9.258;2023-04-25T12:36:08;8.03;;;3.20;;
13799;SDS011;6971;50.028;9.258;2023-04-25T12:41:10;4.60;;;3.10;;
13799;SDS011;6971;50.028;9.258;2023-04-25T12:46:10;4.43;;;3.23;;
13799;SDS011;6971;50.028;9.258;2023-04-25T12:51:11;7.93;;;4.43;;
13799;SDS011;6971;50.028;9.258;2023-04-25T12:56:11;5.30;;;3.30;;
13799;SDS011;6971;50.028;9.258;2023-04-25T13:01:12;5.90;;;2.83;;
13799;SDS011;6971;50.028;9.258;2023-04-25T13:06:14;4.23;;;3.00;;
13799;SDS011;6971;50.028;9.258;2023-04-25T13:11:15;6.77;;;3.10;;
13799;SDS011;6971;50.028;9.258;2023-04-25T13:16:15;10.90;;;5.07;;
13799;SDS011;6971;50.028;9.258;2023-04-25T13:21:16;7.73;;;3.17;;
13799;SDS011;6971;50.028;9.258;2023-04-25T13:26:16;6.27;;;3.23;;
13799;SDS011;6971;50.028;9.258;2023-04-25T13:31:16;6.43;;;3.10;;
13799;SDS011;6971;50.028;9.258;2023-04-25T13:36:17;9.93;;;3.93;;
13799;SDS011;6971;50.028;9.258;2023-04-25T13:41:17;7.63;;;3.30;;
13799;SDS011;6971;50.028;9.258;2023-04-25T13:46:18;5.43;;;3.03;;
13799;SDS011;6971;50.028;9.258;2023-04-25T13:51:19;7.17;;;3.33;;
13799;SDS011;6971;50.028;9.258;2023-04-25T13:56:19;7.00;;;3.30;;
13799;SDS011;6971;50.028;9.258;2023-04-25T14:01:20;8.40;;;3.17;;
13799;SDS011;6971;50.028;9.258;2023-04-25T14:06:23;6.37;;;3.07;;
13799;SDS011;6971;50.028;9.258;2023-04-25T14:11:24;8.70;;;3.47;;
13799;SDS011;6971;50.028;9.258;2023-04-25T14:16:25;5.77;;;3.07;;
13799;SDS011;6971;50.028;9.258;2023-04-25T14:21:26;4.77;;;2.77;;
13799;SDS011;6971;50.028;9.258;2023-04-25T14:26:29;6.60;;;3.40;;
13799;SDS011;6971;50.028;9.258;2023-04-25T14:31:30;7.17;;;3.23;;
13799;SDS011;6971;50.028;9.258;2023-04-25T14:36:30;6.13;;;3.37;;
13799;SDS011;6971;50.028;9.258;2023-04-25T14:41:31;5.00;;;3.23;;
13799;SDS011;6971;50.028;9.258;2023-04-25T14:46:31;6.73;;;3.87;;
13799;SDS011;6971;50.028;9.258;2023-04-25T14:51:32;5.43;;;3.20;;
13799;SDS011;6971;50.028;9.258;2023-04-25T14:56:32;4.97;;;3.93;;
13799;SDS011;6971;50.028;9.258;2023-04-25T15:01:32;6.47;;;3.33;;
13799;SDS011;6971;50.028;9.258;2023-04-25T15:06:33;6.97;;;4.23;;
13799;SDS011;6971;50.028;9.258;2023-04-25T15:11:33;9.23;;;3.40;;
13799;SDS011;6971;50.028;9.258;2023-04-25T15:16:34;6.77;;;3.20;;
13799;SDS011;6971;50.028;9.258;2023-04-25T15:21:34;7.90;;;4.30;;
13799;SDS011;6971;50.028;9.258;2023-04-25T15:26:35;6.17;;;3.73;;
13799;SDS011;6971;50.028;9.258;2023-04-25T15:31:35;6.03;;;3.77;;
13799;SDS011;6971;50.028;9.258;2023-04-25T15:36:36;10.07;;;3.97;;
13799;SDS011;6971;50.028;9.258;2023-04-25T15:41:36;7.23;;;3.37;;
13799;SDS011;6971;50.028;9.258;2023-04-25T15:46:39;5.43;;;3.43;;
13799;SDS011;6971;50.028;9.258;2023-04-25T15:51:39;6.33;;;4.00;;
13799;SDS011;6971;50.028;9.258;2023-04-25T15:56:40;7.17;;;5.50;;
13799;SDS011;6971;50.028;9.258;2023-04-25T16:01:40;8.47;;;3.73;;
13799;SDS011;6971;50.028;9.258;2023-04-25T16:06:40;10.83;;;3.80;;
13799;SDS011;6971;50.028;9.258;2023-04-25T16:11:41;7.80;;;3.70;;
13799;SDS011;6971;50.028;9.258;2023-04-25T16:16:41;7.23;;;3.87;;
13799;SDS011;6971;50.028;9.258;2023-04-25T16:21:43;5.73;;;3.30;;
13799;SDS011;6971;50.028;9.258;2023-04-25T16:26:44;6.43;;;2.80;;
13799;SDS011;6971;50.028;9.258;2023-04-25T16:31:44;6.37;;;3.30;;
13799;SDS011;6971;50.028;9.258;2023-04-25T16:36:46;9.23;;;2.70;;
13799;SDS011;6971;50.028;9.258;2023-04-25T16:41:47;9.63;;;4.17;;
13799;SDS011;6971;50.028;9.258;2023-04-25T16:46:47;5.57;;;3.50;;
13799;SDS011;6971;50.028;9.258;2023-04-25T16:51:48;5.83;;;3.30;;
13799;SDS011;6971;50.028;9.258;2023-04-25T16:56:48;9.93;;;3.27;;
13799;SDS011;6971;50.028;9.258;2023-04-25T17:01:48;8.17;;;3.83;;
13799;SDS011;6971;50.028;9.258;2023-04-25T17:06:49;4.33;;;2.90;;
13799;SDS011;6971;50.028;9.258;2023-04-25T17:11:49;8.20;;;3.50;;
13799;SDS011;6971;50.028;9.258;2023-04-25T17:16:52;15.00;;;8.47;;
13799;SDS011;6971;50.028;9.258;2023-04-25T17:21:52;6.87;;;3.23;;
13799;SDS011;6971;50.028;9.258;2023-04-25T17:26:53;8.80;;;4.23;;
13799;SDS011;6971;50.028;9.258;2023-04-25T17:31:55;8.33;;;2.87;;
13799;SDS011;6971;50.028;9.258;2023-04-25T17:36:56;6.20;;;2.60;;
13799;SDS011;6971;50.028;9.258;2023-04-25T17:41:56;7.60;;;2.80;;
13799;SDS011;6971;50.028;9.258;2023-04-25T17:46:56;7.47;;;3.57;;
13799;SDS011;6971;50.028;9.258;2023-04-25T17:51:57;7.87;;;3.57;;
13799;SDS011;6971;50.028;9.258;2023-04-25T17:56:58;5.10;;;3.23;;
13799;SDS011;6971;50.028;9.258;2023-04-25T18:01:58;5.07;;;3.00;;
13799;SDS011;6971;50.028;9.258;2023-04-25T18:07:00;8.93;;;4.63;;
13799;SDS011;6971;50.028;9.258;2023-04-25T18:12:00;8.13;;;3.47;;
13799;SDS011;6971;50.028;9.258;2023-04-25T18:17:02;4.83;;;3.30;;
13799;SDS011;6971;50.028;9.258;2023-04-25T18:22:03;8.93;;;5.40;;
13799;SDS011;6971;50.028;9.258;2023-04-25T18:27:03;8.23;;;4.30;;
13799;SDS011;6971;50.028;9.258;2023-04-25T18:32:05;7.00;;;3.50;;
13799;SDS011;6971;50.028;9.258;2023-04-25T18:37:05;6.93;;;3.40;;
13799;SDS011;6971;50.028;9.258;2023-04-25T18:42:05;6.47;;;3.30;;
13799;SDS011;6971;50.028;9.258;2023-04-25T18:47:08;6.17;;;2.97;;
13799;SDS011;6971;50.028;9.258;2023-04-25T18:52:09;3.43;;;2.77;;
13799;SDS011;6971;50.028;9.258;2023-04-25T18:57:11;8.77;;;3.30;;
13799;SDS011;6971;50.028;9.258;2023-04-25T19:02:14;6.80;;;3.93;;
13799;SDS011;6971;50.028;9.258;2023-04-25T19:07:15;8.37;;;4.10;;
13799;SDS011;6971;50.028;9.258;2023-04-25T19:12:16;10.50;;;5.10;;
13799;SDS011;6971;50.028;9.258;2023-04-25T19:17:16;5.37;;;3.63;;
13799;SDS011;6971;50.028;9.258;2023-04-25T19:22:16;6.23;;;4.97;;
13799;SDS011;6971;50.028;9.258;2023-04-25T19:27:17;7.00;;;5.37;;
13799;SDS011;6971;50.028;9.258;2023-04-25T19:32:17;9.57;;;4.27;;
13799;SDS011;6971;50.028;9.258;2023-04-25T19:37:18;6.53;;;4.03;;
13799;SDS011;6971;50.028;9.258;2023-04-25T19:42:18;8.43;;;4.63;;
13799;SDS011;6971;50.028;9.258;2023-04-25T19:47:18;7.43;;;4.33;;
13799;SDS011;6971;50.028;9.258;2023-04-25T19:52:19;7.37;;;4.40;;
13799;SDS011;6971;50.028;9.258;2023-04-25T19:57:19;5.53;;;4.17;;
13799;SDS011;6971;50.028;9.258;2023-04-25T20:02:20;8.07;;;4.43;;
13799;SDS011;6971;50.028;9.258;2023-04-25T20:07:21;7.67;;;5.10;;
13799;SDS011;6971;50.028;9.258;2023-04-25T20:12:22;7.37;;;3.63;;
13799;SDS011;6971;50.028;9.258;2023-04-25T20:17:23;7.63;;;3.77;;
13799;SDS011;6971;50.028;9.258;2023-04-25T20:22:23;6.37;;;3.53;;
13799;SDS011;6971;50.028;9.258;2023-04-25T20:27:24;8.83;;;4.03;;
13799;SDS011;6971;50.028;9.258;2023-04-25T20:32:25;7.57;;;4.60;;
13799;SDS011;6971;50.028;9.258;2023-04-25T20:37:25;5.23;;;3.63;;
13799;SDS011;6971;50.028;9.258;2023-04-25T20:42:26;7.50;;;4.30;;
13799;SDS011;6971;50.028;9.258;2023-04-25T20:47:26;7.83;;;3.90;;
13799;SDS011;6971;50.028;9.258;2023-04-25T20:52:28;8.23;;;4.17;;
13799;SDS011;6971;50.028;9.258;2023-04-25T20:57:29;9.80;;;3.47;;
13799;SDS011;6971;50.028;9.258;2023-04-25T21:02:30;5.33;;;3.80;;
13799;SDS011;6971;50.028;9.258;2023-04-25T21:07:30;6.13;;;4.17;;
13799;SDS011;6971;50.028;9.258;2023-04-25T21:12:31;5.77;;;4.10;;
13799;SDS011;6971;50.028;9.258;2023-04-25T21:17:31;7.73;;;3.77;;
13799;SDS011;6971;50.028;9.258;2023-04-25T21:22:32;4.60;;;3.90;;
13799;SDS011;6971;50.028;9.258;2023-04-25T21:27:32;5.57;;;4.13;;
13799;SDS011;6971;50.028;9.258;2023-04-25T21:32:33;6.67;;;4.10;;
13799;SDS011;6971;50.028;9.258;2023-04-25T21:37:35;7.90;;;3.93;;
13799;SDS011;6971;50.028;9.258;2023-04-25T21:42:36;6.63;;;4.00;;
13799;SDS011;6971;50.028;9.258;2023-04-25T21:47:36;6.37;;;3.73;;
13799;SDS011;6971;50.028;9.258;2023-04-25T21:52:37;5.13;;;4.47;;
13799;SDS011;6971;50.028;9.258;2023-04-25T21:57:37;6.70;;;4.97;;
13799;SDS011;6971;50.028;9.258;2023-04-25T22:02:37;7.27;;;4.57;;
13799;SDS011;6971;50.028;9.258;2023-04-25T22:07:39;6.67;;;4.70;;
13799;SDS011;6971;50.028;9.258;2023-04-25T22:12:43;6.57;;;4.17;;
13799;SDS011;6971;50.028;9.258;2023-04-25T22:17:44;7.20;;;6.27;;
13799;SDS011;6971;50.028;9.258;2023-04-25T22:22:45;11.93;;;9.37;;
13799;SDS011;6971;50.028;9.258;2023-04-25T22:27:46;6.07;;;4.53;;
13799;SDS011;6971;50.028;9.258;2023-04-25T22:32:47;6.43;;;4.80;;
13799;SDS011;6971;50.028;9.258;2023-04-25T22:37:47;7.63;;;4.40;;
13799;SDS011;6971;50.028;9.258;2023-04-25T22:42:48;8.63;;;4.27;;
13799;SDS011;6971;50.028;9.258;2023-04-25T22:47:48;5.63;;;4.00;;
13799;SDS011;6971;50.028;9.258;2023-04-25T22:52:48;7.10;;;4.10;;
13799;SDS011;6971;50.028;9.258;2023-04-25T22:57:49;6.50;;;4.60;;
13799;SDS011;6971;50.028;9.258;2023-04-25T23:02:49;7.03;;;4.63;;
13799;SDS011;6971;50.028;9.258;2023-04-25T23:07:50;6.77;;;4.60;;
13799;SDS011;6971;50.028;9.258;2023-04-25T23:12:50;6.00;;;4.20;;
13799;SDS011;6971;50.028;9.258;2023-04-25T23:17:51;5.13;;;3.90;;
13799;SDS011;6971;50.028;9.258;2023-04-25T23:22:51;5.80;;;4.00;;
13799;SDS011;6971;50.028;9.258;2023-04-25T23:27:52;7.80;;;4.67;;
13799;SDS011;6971;50.028;9.258;2023-04-25T23:32:52;5.90;;;4.17;;
13799;SDS011;6971;50.028;9.258;2023-04-25T23:37:53;8.63;;;4.60;;
13799;SDS011;6971;50.028;9.258;2023-04-25T23:42:53;7.37;;;3.90;;
13799;SDS011;6971;50.028;9.258;2023-04-25T23:47:54;6.67;;;3.50;;
13799;SDS011;6971;50.028;9.258;2023-04-25T23:52:54;7.73;;;3.87;;
13799;SDS011;6971;50.028;9.258;2023-04-25T23:57:55;4.20;;;3.80;;
